Time;durP1;ratioP1;P1;durP2;ratioP2;P2;SDS_P1;SDS_P2;PMS_P1;PMS_P2;Temp;Humidity;BMP_temperature;BMP_pressure;BME280_temperature;BME280_humidity;BME280_pressure;Samples;Min_cycle;Max_cycle;Signal;HPM_P1;HPM_P2
2022/09/18 00:01:33;;;;;;;7.03;2.22;;;8.40;99.90;;;;;;5071713;28;20024;-52
2022/09/18 00:04:01;;;;;;;2.85;1.70;;;8.50;99.90;;;;;;5060747;28;20033;-52
2022/09/18 00:06:29;;;;;;;1.60;1.50;;;8.40;99.90;;;;;;5053277;28;20051;-50
2022/09/18 00:08:58;;;;;;;4.75;1.95;;;8.40;99.90;;;;;;5068629;28;20043;-51
2022/09/18 00:11:26;;;;;;;2.40;1.75;;;8.40;99.90;;;;;;5073569;28;20414;-52
2022/09/18 00:13:52;;;;;;;2.00;1.85;;;8.40;99.90;;;;;;5072982;28;20119;-51
2022/09/18 00:16:19;;;;;;;2.47;2.28;;;8.40;99.90;;;;;;5073449;28;20488;-50
2022/09/18 00:18:45;;;;;;;1.60;1.50;;;8.50;99.90;;;;;;5063223;28;20416;-51
2022/09/18 00:21:12;;;;;;;2.92;1.92;;;8.40;99.90;;;;;;5053022;28;20037;-51
2022/09/18 00:23:39;;;;;;;3.72;1.63;;;8.50;99.90;;;;;;5052987;28;20048;-51
2022/09/18 00:26:06;;;;;;;7.05;2.25;;;8.40;99.90;;;;;;5053179;28;20113;-53
2022/09/18 00:28:33;;;;;;;1.92;1.80;;;8.40;99.90;;;;;;5054036;28;20044;-54
2022/09/18 00:31:07;;;;;;;4.25;1.65;;;8.40;99.90;;;;;;5053218;28;20032;-52
2022/09/18 00:33:34;;;;;;;3.03;1.70;;;8.40;99.90;;;;;;5072519;28;20060;-53
2022/09/18 00:36:01;;;;;;;1.73;1.63;;;8.40;99.90;;;;;;5072574;28;20029;-51
2022/09/18 00:38:29;;;;;;;4.72;1.70;;;8.50;99.90;;;;;;5071164;28;20082;-52
2022/09/18 00:40:54;;;;;;;1.60;1.50;;;8.50;99.90;;;;;;5058213;28;20044;-53
2022/09/18 00:43:24;;;;;;;2.45;1.92;;;8.40;99.90;;;;;;5054072;28;20021;-53
2022/09/18 00:46:28;;;;;;;5.03;2.17;;;8.50;99.90;;;;;;5052259;28;20071;-54
2022/09/18 00:49:03;;;;;;;2.33;1.98;;;8.50;99.90;;;;;;5077117;28;20029;-54
2022/09/18 00:51:32;;;;;;;3.47;1.77;;;8.40;99.90;;;;;;5052184;28;20029;-55
2022/09/18 00:54:04;;;;;;;5.93;2.00;;;8.40;99.90;;;;;;5072483;28;20070;-53
2022/09/18 00:56:30;;;;;;;6.22;2.03;;;8.40;99.90;;;;;;5072517;28;20095;-52
2022/09/18 00:58:56;;;;;;;3.80;2.55;;;8.40;99.90;;;;;;5071147;28;20032;-51
2022/09/18 01:01:21;;;;;;;2.08;1.88;;;8.40;99.90;;;;;;5072392;28;20032;-51
2022/09/18 01:03:47;;;;;;;6.55;3.83;;;8.40;99.90;;;;;;5060494;28;20025;-52
2022/09/18 01:06:19;;;;;;;2.67;1.90;;;8.40;99.90;;;;;;5060239;28;20017;-53
2022/09/18 01:09:31;;;;;;;4.20;1.90;;;8.40;99.90;;;;;;5071828;28;20103;-51
2022/09/18 01:12:11;;;;;;;3.03;2.05;;;8.40;99.90;;;;;;5050603;28;20033;-53
2022/09/18 01:18:01;;;;;;;3.92;3.03;;;8.50;99.90;;;;;;5061648;28;20048;-52
2022/09/18 01:20:41;;;;;;;;;;;8.40;99.90;;;;;;5069299;28;20024;-53
2022/09/18 01:23:26;;;;;;;5.88;2.40;;;8.40;99.90;;;;;;5069990;28;19916;-52
2022/09/18 01:26:26;;;;;;;2.55;1.98;;;8.50;99.90;;;;;;5070254;28;20395;-51
2022/09/18 01:28:54;;;;;;;4.97;2.40;;;8.40;99.90;;;;;;5071532;28;20041;-51
2022/09/18 01:31:32;;;;;;;6.15;2.40;;;8.50;99.90;;;;;;5071664;28;20471;-52
2022/09/18 01:34:08;;;;;;;4.35;2.08;;;8.50;99.90;;;;;;5068442;28;20036;-54
2022/09/18 01:36:38;;;;;;;3.92;2.20;;;8.50;99.90;;;;;;5071769;28;20416;-55
2022/09/18 01:39:15;;;;;;;9.38;2.47;;;8.40;99.90;;;;;;5071566;28;20025;-52
2022/09/18 01:41:49;;;;;;;4.75;2.25;;;8.40;99.90;;;;;;5052675;28;20029;-53
2022/09/18 01:44:22;;;;;;;2.60;2.40;;;8.50;99.90;;;;;;5051680;28;20420;-54
2022/09/18 01:46:49;;;;;;;3.58;2.22;;;8.50;99.90;;;;;;5070627;28;20479;-53
2022/09/18 01:49:30;;;;;;;3.67;1.90;;;8.50;99.90;;;;;;5053486;28;20025;-52
2022/09/18 01:52:19;;;;;;;4.57;1.92;;;8.40;99.90;;;;;;5050248;28;20028;-52
2022/09/18 01:54:48;;;;;;;4.35;1.83;;;8.40;99.90;;;;;;5051427;28;20483;-53
2022/09/18 01:57:32;;;;;;;3.17;2.05;;;8.40;99.90;;;;;;5051589;28;20039;-51
2022/09/18 02:00:03;;;;;;;8.00;2.10;;;8.40;99.90;;;;;;5051509;28;20025;-51
2022/09/18 02:03:04;;;;;;;4.53;2.13;;;8.40;99.90;;;;;;5065868;28;20059;-53
2022/09/18 02:05:35;;;;;;;3.35;2.72;;;8.30;99.90;;;;;;5066965;28;20384;-54
2022/09/18 02:08:22;;;;;;;8.00;2.75;;;8.20;99.90;;;;;;5070042;28;20105;-51
2022/09/18 02:11:02;;;;;;;6.35;2.30;;;8.30;99.90;;;;;;5068722;28;20028;-55
2022/09/18 02:13:46;;;;;;;5.10;2.22;;;8.30;99.90;;;;;;5068544;28;20033;-50
2022/09/18 02:16:23;;;;;;;8.65;2.13;;;8.30;99.90;;;;;;5069679;28;20025;-52
2022/09/18 02:18:52;;;;;;;5.35;3.25;;;8.20;99.90;;;;;;5060593;28;20101;-51
2022/09/18 02:21:27;;;;;;;6.03;2.50;;;8.20;99.90;;;;;;5060270;28;20028;-53
2022/09/18 02:23:59;;;;;;;6.28;2.10;;;8.10;99.90;;;;;;5070909;28;20028;-53
2022/09/18 02:26:25;;;;;;;5.40;2.58;;;8.20;99.90;;;;;;5071045;28;20051;-51
2022/09/18 02:28:53;;;;;;;10.30;2.15;;;8.20;99.90;;;;;;5070396;28;20036;-53
2022/09/18 02:31:19;;;;;;;4.45;2.03;;;8.20;99.90;;;;;;5070920;28;20554;-51
2022/09/18 02:33:45;;;;;;;5.47;2.50;;;8.20;99.90;;;;;;5068849;28;20035;-51
2022/09/18 02:36:32;;;;;;;7.53;1.90;;;8.20;99.90;;;;;;5070775;28;20025;-52
2022/09/18 02:39:19;;;;;;;4.15;2.38;;;8.30;99.90;;;;;;5070793;28;20024;-53
2022/09/18 02:41:44;;;;;;;4.35;2.15;;;8.20;99.90;;;;;;5066921;28;20021;-52
2022/09/18 02:44:30;;;;;;;2.80;2.05;;;8.20;99.90;;;;;;5051067;28;21610;-52
2022/09/18 02:47:00;;;;;;;7.32;2.00;;;8.20;99.90;;;;;;5051158;28;20021;-51
2022/09/18 02:49:46;;;;;;;3.83;2.05;;;8.20;99.90;;;;;;5051029;28;20013;-51
2022/09/18 02:52:35;;;;;;;7.60;2.72;;;8.20;99.90;;;;;;5067178;28;20106;-51
2022/09/18 02:55:14;;;;;;;4.63;2.28;;;8.30;99.90;;;;;;5070812;28;20021;-51
2022/09/18 02:57:47;;;;;;;6.72;2.03;;;8.20;99.90;;;;;;5059554;28;20117;-51
2022/09/18 03:00:17;;;;;;;5.43;2.10;;;8.20;99.90;;;;;;5051108;28;20443;-51
2022/09/18 03:02:43;;;;;;;8.82;2.15;;;8.20;99.90;;;;;;5050765;28;20040;-52
2022/09/18 03:05:09;;;;;;;5.53;2.45;;;8.10;99.90;;;;;;5050824;28;20025;-53
2022/09/18 03:07:35;;;;;;;4.30;2.22;;;8.10;99.90;;;;;;5050487;28;20041;-51
2022/09/18 03:10:01;;;;;;;8.10;2.33;;;8.00;99.90;;;;;;5050983;28;20035;-51
2022/09/18 03:12:27;;;;;;;11.15;3.38;;;8.00;99.90;;;;;;5051132;28;20108;-51
2022/09/18 03:14:53;;;;;;;7.55;2.10;;;8.00;99.90;;;;;;5071259;28;20032;-52
2022/09/18 03:17:19;;;;;;;5.43;2.00;;;8.00;99.90;;;;;;5062848;28;20341;-52
2022/09/18 03:19:45;;;;;;;5.25;1.90;;;8.00;99.90;;;;;;5055247;28;20074;-51
2022/09/18 03:22:11;;;;;;;3.75;2.13;;;8.00;99.90;;;;;;5058024;28;20461;-54
2022/09/18 03:24:36;;;;;;;5.88;2.60;;;8.00;99.90;;;;;;5068896;28;20529;-52
2022/09/18 03:27:03;;;;;;;3.80;2.28;;;8.10;99.90;;;;;;5054252;28;20029;-51
2022/09/18 03:29:29;;;;;;;5.13;1.92;;;8.10;99.90;;;;;;5059069;28;20020;-54
2022/09/18 03:31:55;;;;;;;4.47;2.10;;;8.10;99.90;;;;;;5073852;28;20346;-51
2022/09/18 03:34:20;;;;;;;4.80;2.50;;;8.10;99.90;;;;;;5068762;28;20070;-55
2022/09/18 03:36:46;;;;;;;8.23;2.60;;;8.20;99.90;;;;;;5060839;28;20028;-52
2022/09/18 03:39:12;;;;;;;5.60;2.55;;;8.20;99.90;;;;;;5073729;28;20031;-51
2022/09/18 03:41:38;;;;;;;4.57;1.95;;;8.20;99.90;;;;;;5072465;28;20031;-52
2022/09/18 03:44:04;;;;;;;6.97;2.53;;;8.10;99.90;;;;;;5065084;28;20029;-52
2022/09/18 03:46:30;;;;;;;6.72;2.30;;;8.20;99.90;;;;;;5053831;28;20388;-52
2022/09/18 03:48:55;;;;;;;4.07;2.22;;;8.20;99.90;;;;;;5053664;28;20461;-52
2022/09/18 03:51:21;;;;;;;3.72;2.03;;;8.20;99.90;;;;;;5052514;28;20029;-55
2022/09/18 03:53:49;;;;;;;6.13;2.53;;;8.20;99.90;;;;;;5053698;28;20075;-52
2022/09/18 03:56:15;;;;;;;7.90;2.35;;;8.10;99.90;;;;;;5071740;28;20086;-52
2022/09/18 03:58:46;;;;;;;13.35;2.72;;;8.20;99.90;;;;;;5073601;28;20059;-51
2022/09/18 04:01:15;;;;;;;5.13;1.92;;;8.20;99.90;;;;;;5073349;28;20124;-52
2022/09/18 04:03:40;;;;;;;5.97;2.03;;;8.20;99.90;;;;;;5073244;28;20033;-53
2022/09/18 04:06:06;;;;;;;5.82;1.98;;;8.20;99.90;;;;;;5072268;28;20036;-52
2022/09/18 04:08:33;;;;;;;4.03;1.90;;;8.10;99.90;;;;;;5052913;28;20098;-51
2022/09/18 04:10:58;;;;;;;3.05;1.85;;;8.20;99.90;;;;;;5054577;28;20063;-52
2022/09/18 04:13:25;;;;;;;5.68;2.55;;;8.20;99.90;;;;;;5053560;28;20049;-53
2022/09/18 04:15:51;;;;;;;7.53;2.78;;;8.20;99.90;;;;;;5066850;28;20086;-52
2022/09/18 04:18:17;;;;;;;7.97;2.05;;;8.10;99.90;;;;;;5073337;28;20029;-53
2022/09/18 04:20:43;;;;;;;11.75;2.47;;;8.10;99.90;;;;;;5069643;28;20078;-52
2022/09/18 04:23:11;;;;;;;5.35;2.30;;;8.10;99.90;;;;;;5071686;28;20021;-54
2022/09/18 04:25:37;;;;;;;4.90;2.25;;;8.10;99.90;;;;;;5056613;28;20031;-53
2022/09/18 04:28:02;;;;;;;5.93;2.08;;;8.00;99.90;;;;;;5051701;28;20468;-54
2022/09/18 04:30:28;;;;;;;4.82;2.60;;;8.00;99.90;;;;;;5066477;28;20107;-52
2022/09/18 04:32:53;;;;;;;6.00;2.40;;;8.10;99.90;;;;;;5072479;28;20048;-53
2022/09/18 04:35:19;;;;;;;5.30;2.08;;;8.10;99.90;;;;;;5072590;28;20118;-54
2022/09/18 04:37:45;;;;;;;4.88;2.40;;;8.10;99.90;;;;;;5058268;28;20620;-51
2022/09/18 04:40:11;;;;;;;6.30;2.55;;;8.10;99.90;;;;;;5051521;28;20033;-51
2022/09/18 04:42:36;;;;;;;8.43;2.25;;;8.20;99.90;;;;;;5051370;28;20025;-52
2022/09/18 04:45:03;;;;;;;9.65;2.33;;;8.10;99.90;;;;;;5051354;28;20029;-51
2022/09/18 04:47:28;;;;;;;10.38;2.65;;;8.20;99.90;;;;;;5064640;28;20071;-51
2022/09/18 04:49:54;;;;;;;5.10;2.10;;;8.20;99.90;;;;;;5070201;28;20432;-51
2022/09/18 04:52:23;;;;;;;2.70;2.35;;;8.20;99.90;;;;;;5070552;28;20388;-50
2022/09/18 04:54:48;;;;;;;7.60;2.28;;;8.30;99.90;;;;;;5070783;28;20417;-51
2022/09/18 04:57:15;;;;;;;4.85;2.10;;;8.20;99.90;;;;;;5069589;28;20037;-52
2022/09/18 04:59:41;;;;;;;6.28;2.45;;;8.30;99.90;;;;;;5064812;28;20039;-51
2022/09/18 05:02:06;;;;;;;5.47;2.50;;;8.30;99.90;;;;;;5051054;28;20472;-53
2022/09/18 05:04:32;;;;;;;10.70;3.35;;;8.30;99.90;;;;;;5054151;28;20107;-53
2022/09/18 05:06:58;;;;;;;11.88;2.92;;;8.20;99.90;;;;;;5069276;28;20059;-53
2022/09/18 05:09:23;;;;;;;5.05;2.50;;;8.00;99.90;;;;;;5070547;28;20236;-50
2022/09/18 05:11:49;;;;;;;6.15;3.10;;;7.90;99.90;;;;;;5070508;28;20331;-53
2022/09/18 05:14:15;;;;;;;5.95;3.78;;;7.80;99.90;;;;;;5069335;28;20031;-54
2022/09/18 05:16:40;;;;;;;3.35;3.03;;;7.80;99.90;;;;;;5067679;28;20060;-50
2022/09/18 05:19:06;;;;;;;5.43;3.00;;;7.70;99.90;;;;;;5066994;28;20422;-52
2022/09/18 05:21:31;;;;;;;6.68;3.47;;;7.70;99.90;;;;;;5051650;28;20440;-51
2022/09/18 05:23:57;;;;;;;7.57;3.72;;;7.70;99.90;;;;;;5063623;28;20125;-50
2022/09/18 05:26:23;;;;;;;7.65;4.07;;;7.70;99.90;;;;;;5069434;28;20035;-51
2022/09/18 05:28:49;;;;;;;4.13;2.45;;;7.70;99.90;;;;;;5070017;28;20059;-53
2022/09/18 05:31:15;;;;;;;5.28;3.25;;;7.70;99.90;;;;;;5050743;28;20050;-52
2022/09/18 05:33:41;;;;;;;6.75;3.05;;;7.80;99.90;;;;;;5051692;28;20032;-54
2022/09/18 05:36:07;;;;;;;8.32;3.00;;;7.80;99.90;;;;;;5065870;28;20024;-51
2022/09/18 05:38:33;;;;;;;3.55;2.67;;;7.80;99.90;;;;;;5068529;28;20551;-55
2022/09/18 05:41:02;;;;;;;6.32;2.90;;;7.80;99.90;;;;;;5070235;28;20158;-52
2022/09/18 05:43:28;;;;;;;3.20;2.58;;;7.80;99.90;;;;;;5069369;28;20523;-53
2022/09/18 05:45:54;;;;;;;4.93;2.50;;;7.80;99.90;;;;;;5053078;28;20060;-51
2022/09/18 05:48:20;;;;;;;7.35;2.88;;;7.90;99.90;;;;;;5050174;28;20033;-51
2022/09/18 05:50:47;;;;;;;8.23;2.65;;;8.00;99.90;;;;;;5050444;28;20198;-51
2022/09/18 05:53:17;;;;;;;7.20;3.33;;;8.00;99.90;;;;;;5051396;28;20025;-51
2022/09/18 05:55:43;;;;;;;10.25;2.53;;;8.10;99.90;;;;;;5050058;28;20025;-52
2022/09/18 05:58:14;;;;;;;10.27;2.50;;;8.20;99.90;;;;;;5062275;28;20095;-51
2022/09/18 06:00:40;;;;;;;11.48;3.05;;;8.20;99.90;;;;;;5069855;28;20445;-52
2022/09/18 06:03:09;;;;;;;8.65;2.63;;;8.20;99.90;;;;;;5069974;28;20060;-52
2022/09/18 06:05:39;;;;;;;9.88;3.13;;;8.20;99.90;;;;;;5069783;28;20020;-52
2022/09/18 06:08:07;;;;;;;6.47;2.92;;;8.30;99.90;;;;;;5070027;28;20144;-53
2022/09/18 06:10:38;;;;;;;5.55;2.90;;;8.40;99.90;;;;;;5069518;28;20021;-54
2022/09/18 06:13:09;;;;;;;11.18;2.60;;;8.40;99.90;;;;;;5070196;28;20016;-51
2022/09/18 06:15:35;;;;;;;4.38;2.85;;;8.50;99.90;;;;;;5061804;28;20021;-53
2022/09/18 06:18:02;;;;;;;13.40;3.05;;;8.40;99.90;;;;;;5050169;28;20529;-52
2022/09/18 06:20:28;;;;;;;7.38;2.47;;;8.40;99.90;;;;;;5050960;28;20052;-52
2022/09/18 06:22:58;;;;;;;7.68;2.70;;;8.50;99.90;;;;;;5053509;28;20047;-51
2022/09/18 06:25:23;;;;;;;5.43;2.40;;;8.60;99.90;;;;;;5068628;28;20024;-52
2022/09/18 06:27:53;;;;;;;4.20;2.30;;;8.60;99.90;;;;;;5060236;28;20025;-51
2022/09/18 06:30:19;;;;;;;5.80;2.60;;;8.60;99.90;;;;;;5053428;28;20017;-50
2022/09/18 06:32:45;;;;;;;9.15;2.40;;;8.60;99.90;;;;;;5069348;28;20107;-51
2022/09/18 06:35:10;;;;;;;3.25;2.60;;;8.60;99.90;;;;;;5061355;28;20561;-54
2022/09/18 06:37:41;;;;;;;10.88;2.53;;;8.70;99.90;;;;;;5050246;28;20025;-50
2022/09/18 06:40:07;;;;;;;8.70;2.90;;;8.60;99.90;;;;;;5048529;28;20025;-55
2022/09/18 06:42:33;;;;;;;6.95;2.28;;;8.60;99.90;;;;;;5049706;28;20033;-50
2022/09/18 06:44:58;;;;;;;12.90;2.88;;;8.70;99.90;;;;;;5049884;28;20036;-51
2022/09/18 06:47:24;;;;;;;4.82;2.33;;;8.70;99.90;;;;;;5048596;28;20032;-53
2022/09/18 06:49:49;;;;;;;5.80;2.47;;;8.60;99.90;;;;;;5055676;28;20020;-51
2022/09/18 06:52:15;;;;;;;7.70;2.22;;;8.60;99.90;;;;;;5071537;28;20480;-52
2022/09/18 06:54:41;;;;;;;3.75;2.10;;;8.70;99.90;;;;;;5061927;28;20017;-51
2022/09/18 06:57:07;;;;;;;9.68;2.55;;;8.60;99.90;;;;;;5057151;28;20031;-51
2022/09/18 06:59:32;;;;;;;3.67;2.30;;;8.70;99.90;;;;;;5053111;28;20021;-51
2022/09/18 07:01:58;;;;;;;8.10;2.15;;;8.70;99.90;;;;;;5054521;28;20468;-52
2022/09/18 07:04:24;;;;;;;4.63;2.35;;;8.80;99.90;;;;;;5055051;28;20049;-52
2022/09/18 07:06:49;;;;;;;2.85;2.03;;;8.80;99.90;;;;;;5072905;28;20256;-52
2022/09/18 07:09:15;;;;;;;6.68;2.83;;;8.80;99.90;;;;;;5071696;28;20066;-52
2022/09/18 07:11:44;;;;;;;3.22;2.10;;;8.80;99.90;;;;;;5072011;28;20055;-51
2022/09/18 07:14:09;;;;;;;6.43;1.90;;;8.80;99.90;;;;;;5070220;28;20027;-53
2022/09/18 07:16:35;;;;;;;3.67;2.42;;;8.90;99.90;;;;;;5064803;28;20036;-53
2022/09/18 07:19:01;;;;;;;3.92;2.33;;;8.90;99.90;;;;;;5053091;28;20021;-53
2022/09/18 07:21:27;;;;;;;4.18;2.25;;;8.90;99.90;;;;;;5054006;28;20447;-51
2022/09/18 07:23:52;;;;;;;2.97;1.90;;;9.00;99.90;;;;;;5053102;28;20033;-55
2022/09/18 07:26:18;;;;;;;3.70;1.92;;;8.90;99.90;;;;;;5055244;28;20444;-55
2022/09/18 07:28:44;;;;;;;8.57;2.08;;;9.00;99.90;;;;;;5051622;28;20508;-55
2022/09/18 07:31:10;;;;;;;2.80;2.60;;;9.10;99.90;;;;;;5069211;28;20708;-54
2022/09/18 07:33:36;;;;;;;6.63;2.72;;;9.20;99.90;;;;;;5060541;28;20025;-55
2022/09/18 07:36:04;;;;;;;5.78;1.90;;;9.30;99.90;;;;;;5056744;28;20380;-53
2022/09/18 07:38:30;;;;;;;5.40;1.83;;;9.40;99.90;;;;;;5052719;28;20052;-59
2022/09/18 07:40:55;;;;;;;2.83;1.95;;;9.40;99.90;;;;;;5081996;28;20699;-51
2022/09/18 07:43:21;;;;;;;4.97;2.08;;;9.50;99.90;;;;;;5072430;28;20392;-53
2022/09/18 07:45:47;;;;;;;2.15;1.60;;;9.60;99.90;;;;;;5079973;28;20035;-55
2022/09/18 07:48:15;;;;;;;3.80;1.83;;;9.40;99.90;;;;;;5092701;28;20020;-52
2022/09/18 07:50:41;;;;;;;4.82;2.35;;;9.40;99.90;;;;;;5092604;28;20387;-55
2022/09/18 07:53:07;;;;;;;11.43;2.28;;;9.50;99.90;;;;;;5076535;28;20425;-53
2022/09/18 07:55:35;;;;;;;4.40;2.22;;;9.50;99.90;;;;;;5072367;28;20460;-56
2022/09/18 07:58:04;;;;;;;3.67;2.00;;;9.40;99.90;;;;;;5072525;28;20043;-51
2022/09/18 08:00:33;;;;;;;3.42;2.08;;;9.30;99.90;;;;;;5071768;28;20111;-53
2022/09/18 08:03:06;;;;;;;2.42;2.10;;;9.30;99.90;;;;;;5072307;28;20040;-52
2022/09/18 08:05:32;;;;;;;6.03;2.17;;;9.30;99.90;;;;;;5072148;28;20024;-51
2022/09/18 08:08:06;;;;;;;8.32;2.10;;;9.20;99.90;;;;;;5072041;28;20345;-53
2022/09/18 08:10:33;;;;;;;2.35;1.77;;;9.30;99.90;;;;;;5083402;28;20059;-51
2022/09/18 08:12:59;;;;;;;3.75;1.80;;;9.30;99.90;;;;;;5092676;28;20029;-50
2022/09/18 08:15:24;;;;;;;3.30;1.67;;;9.30;99.90;;;;;;5092622;28;20020;-53
2022/09/18 08:17:50;;;;;;;2.72;1.88;;;9.40;99.90;;;;;;5092118;28;20060;-51
2022/09/18 08:20:16;;;;;;;2.53;1.80;;;9.50;99.90;;;;;;5091886;28;20432;-54
2022/09/18 08:22:42;;;;;;;3.67;1.95;;;9.70;99.90;;;;;;5090911;28;20024;-53
2022/09/18 08:25:09;;;;;;;3.47;1.95;;;9.90;99.90;;;;;;5090890;28;20024;-52
2022/09/18 08:27:36;;;;;;;2.72;1.80;;;10.00;99.90;;;;;;5090854;28;20117;-53
2022/09/18 08:30:04;;;;;;;3.03;1.80;;;10.10;99.90;;;;;;5071620;28;20185;-56
2022/09/18 08:32:31;;;;;;;2.28;2.00;;;10.00;99.90;;;;;;5071163;28;20024;-51
2022/09/18 08:34:59;;;;;;;3.22;1.80;;;10.10;99.90;;;;;;5072048;28;20017;-53
2022/09/18 08:37:25;;;;;;;6.10;2.13;;;9.80;99.90;;;;;;5072821;28;20028;-51
2022/09/18 08:39:51;;;;;;;2.13;1.50;;;9.80;99.90;;;;;;5072664;28;20032;-53
2022/09/18 08:42:35;;;;;;;2.33;1.70;;;9.70;99.90;;;;;;5072811;28;20029;-54
2022/09/18 08:45:16;;;;;;;4.47;1.75;;;9.70;99.90;;;;;;5072706;28;20217;-54
2022/09/18 08:48:08;;;;;;;8.40;1.92;;;9.70;99.90;;;;;;5072543;28;20368;-51
2022/09/18 08:50:38;;;;;;;2.25;1.70;;;9.80;99.90;;;;;;5072552;28;20024;-51
2022/09/18 08:53:13;;;;;;;7.93;1.65;;;9.90;99.90;;;;;;5072585;28;20035;-54
2022/09/18 08:55:43;;;;;;;1.92;1.60;;;10.00;99.90;;;;;;5072321;28;20654;-49
2022/09/18 08:58:16;;;;;;;7.45;1.75;;;9.90;99.90;;;;;;5072629;28;20060;-54
2022/09/18 09:00:49;;;;;;;2.40;1.92;;;9.70;99.90;;;;;;5072082;28;20067;-50
2022/09/18 09:03:23;;;;;;;3.05;2.13;;;9.80;99.90;;;;;;5072393;28;20033;-52
2022/09/18 09:05:56;;;;;;;4.32;1.80;;;9.70;99.90;;;;;;5072156;28;20419;-51
2022/09/18 09:08:44;;;;;;;2.22;1.70;;;9.80;99.90;;;;;;5078137;28;20067;-52
2022/09/18 09:11:42;;;;;;;2.50;1.90;;;9.80;99.90;;;;;;5072312;28;20032;-55
2022/09/18 09:14:34;;;;;;;4.60;2.20;;;9.90;99.90;;;;;;5062503;28;20044;-55
2022/09/18 09:17:10;;;;;;;3.75;2.17;;;9.80;99.90;;;;;;5067078;28;20025;-53
2022/09/18 09:19:53;;;;;;;3.03;1.80;;;9.90;99.90;;;;;;5058035;28;20023;-51
2022/09/18 09:22:26;;;;;;;2.30;1.73;;;10.00;99.90;;;;;;5051637;28;20021;-50
2022/09/18 09:25:00;;;;;;;7.68;2.35;;;10.10;99.90;;;;;;5080599;28;20028;-50
2022/09/18 09:27:43;;;;;;;3.83;2.28;;;10.10;99.90;;;;;;5072035;28;20025;-51
2022/09/18 09:30:14;;;;;;;2.73;1.90;;;10.20;99.90;;;;;;5052106;28;20025;-59
2022/09/18 09:33:01;;;;;;;4.13;1.75;;;10.10;99.90;;;;;;5051767;28;20266;-53
2022/09/18 09:35:29;;;;;;;6.03;2.10;;;10.10;99.90;;;;;;5051944;28;20025;-53
2022/09/18 09:37:58;;;;;;;5.38;2.28;;;10.20;99.90;;;;;;5051872;28;20032;-55
2022/09/18 09:40:32;;;;;;;6.95;2.08;;;10.30;99.90;;;;;;5054211;28;20029;-51
2022/09/18 09:43:10;;;;;;;4.60;2.17;;;10.40;99.90;;;;;;5050413;28;20456;-51
2022/09/18 09:45:42;;;;;;;6.32;2.83;;;10.40;99.90;;;;;;5051567;28;20468;-55
2022/09/18 09:48:26;;;;;;;2.95;2.65;;;10.40;99.90;;;;;;5051796;28;20048;-53
2022/09/18 09:51:04;;;;;;;2.80;1.95;;;10.20;99.90;;;;;;5051604;28;20046;-56
2022/09/18 09:53:30;;;;;;;5.50;1.65;;;10.20;99.90;;;;;;5051628;28;20055;-55
2022/09/18 09:56:14;;;;;;;4.78;2.00;;;10.10;99.90;;;;;;5051488;28;20033;-51
2022/09/18 09:58:45;;;;;;;3.70;1.60;;;10.20;99.90;;;;;;5052581;28;20017;-54
2022/09/18 10:01:52;;;;;;;2.22;1.48;;;10.20;99.90;;;;;;5051569;28;20104;-52
2022/09/18 10:04:39;;;;;;;3.67;2.00;;;10.30;99.90;;;;;;5060999;28;20037;-52
2022/09/18 10:07:21;;;;;;;1.85;1.67;;;10.30;99.90;;;;;;5051386;28;20052;-51
2022/09/18 10:10:00;;;;;;;2.38;1.80;;;10.20;99.90;;;;;;5051385;28;20017;-54
2022/09/18 10:12:43;;;;;;;2.15;1.70;;;10.40;99.90;;;;;;5050090;28;20507;-52
2022/09/18 10:15:20;;;;;;;2.22;1.65;;;10.50;99.90;;;;;;5053012;28;20025;-54
2022/09/18 10:17:51;;;;;;;2.92;1.67;;;10.40;99.90;;;;;;5070900;28;20162;-52
2022/09/18 10:20:27;;;;;;;3.15;1.63;;;10.30;99.90;;;;;;5071302;28;20028;-54
2022/09/18 10:22:57;;;;;;;2.95;1.80;;;10.40;99.90;;;;;;5071178;28;20020;-53
2022/09/18 10:25:48;;;;;;;4.47;1.58;;;10.40;99.90;;;;;;5064505;28;20075;-52
2022/09/18 10:28:15;;;;;;;4.45;1.35;;;10.50;99.90;;;;;;5044286;28;20032;-51
2022/09/18 10:30:58;;;;;;;4.53;1.80;;;10.70;99.90;;;;;;5046290;28;20116;-51
2022/09/18 10:33:44;;;;;;;3.90;1.73;;;10.80;99.90;;;;;;5043584;28;20032;-53
2022/09/18 10:36:21;;;;;;;5.00;1.60;;;11.20;99.90;;;;;;5043144;28;20087;-54
2022/09/18 10:38:48;;;;;;;2.03;1.63;;;11.10;99.90;;;;;;5043171;28;20133;-53
2022/09/18 10:41:28;;;;;;;1.67;1.33;;;10.90;99.90;;;;;;5043912;28;20051;-51
2022/09/18 10:44:01;;;;;;;2.05;1.48;;;11.10;99.90;;;;;;5044240;28;20430;-51
2022/09/18 10:46:30;;;;;;;1.17;1.08;;;10.80;99.90;;;;;;5044172;28;20029;-52
2022/09/18 10:49:01;;;;;;;1.67;1.20;;;10.70;99.90;;;;;;5044356;28;20048;-51
2022/09/18 10:51:28;;;;;;;1.65;1.55;;;10.70;99.90;;;;;;5044638;28;20052;-53
2022/09/18 10:54:16;;;;;;;2.17;1.40;;;10.60;99.90;;;;;;5049372;28;20028;-54
2022/09/18 10:56:41;;;;;;;2.10;1.15;;;10.60;99.90;;;;;;5042056;28;20492;-53
2022/09/18 10:59:25;;;;;;;1.42;1.33;;;10.70;99.90;;;;;;5043081;28;20094;-51
2022/09/18 11:01:59;;;;;;;1.45;1.35;;;10.70;99.90;;;;;;5060546;28;20114;-54
2022/09/18 11:04:26;;;;;;;;;;;10.70;99.90;;;;;;5054304;28;20049;-54
2022/09/18 11:06:52;;;;;;;1.30;1.20;;;10.60;99.90;;;;;;5042081;28;20047;-51
2022/09/18 11:09:25;;;;;;;1.38;1.27;;;10.70;99.90;;;;;;5042786;28;20118;-54
2022/09/18 11:11:51;;;;;;;1.20;1.17;;;10.50;99.90;;;;;;5042585;28;20029;-53
2022/09/18 11:14:21;;;;;;;4.10;1.52;;;10.50;99.90;;;;;;5043154;28;20087;-55
2022/09/18 11:16:49;;;;;;;2.88;1.50;;;10.50;99.90;;;;;;5041059;28;20449;-53
2022/09/18 11:19:30;;;;;;;2.10;1.40;;;10.60;99.90;;;;;;5042920;28;20110;-55
2022/09/18 11:22:21;;;;;;;3.20;1.67;;;10.60;99.90;;;;;;5040706;28;20037;-50
2022/09/18 11:24:46;;;;;;;8.55;2.38;;;10.40;99.90;;;;;;5041412;28;20025;-51
2022/09/18 11:27:20;;;;;;;1.55;1.48;;;10.50;99.90;;;;;;5041850;28;20032;-55
2022/09/18 11:29:45;;;;;;;1.92;1.50;;;10.50;99.90;;;;;;5043295;28;20124;-52
2022/09/18 11:32:16;;;;;;;3.95;1.48;;;10.60;99.90;;;;;;5043425;28;20130;-53
2022/09/18 11:34:55;;;;;;;1.50;1.40;;;10.90;99.90;;;;;;5042662;28;20108;-51
2022/09/18 11:37:33;;;;;;;1.90;1.35;;;10.90;99.90;;;;;;5043011;28;20519;-52
2022/09/18 11:40:06;;;;;;;3.10;1.52;;;10.80;99.90;;;;;;5042050;28;20472;-52
2022/09/18 11:42:32;;;;;;;3.00;1.58;;;10.80;99.90;;;;;;5042815;28;20102;-52
2022/09/18 11:45:16;;;;;;;2.05;1.60;;;10.60;99.90;;;;;;5042737;28;20480;-51
2022/09/18 11:47:46;;;;;;;1.42;1.30;;;10.50;99.90;;;;;;5042784;28;20048;-53
2022/09/18 11:50:23;;;;;;;1.98;1.73;;;10.50;99.90;;;;;;5043117;28;20032;-54
2022/09/18 11:52:53;;;;;;;2.20;1.42;;;10.50;99.90;;;;;;5043293;28;20032;-55
2022/09/18 11:55:19;;;;;;;3.47;1.70;;;10.60;99.90;;;;;;5043287;28;20033;-51
2022/09/18 11:58:04;;;;;;;1.85;1.65;;;10.70;99.90;;;;;;5042210;28;20483;-54
2022/09/18 12:00:44;;;;;;;3.72;2.22;;;10.70;99.90;;;;;;5042587;28;20036;-55
2022/09/18 12:03:16;;;;;;;2.22;1.58;;;10.60;99.90;;;;;;5042728;28;20052;-51
2022/09/18 12:06:09;;;;;;;3.97;1.67;;;10.50;99.90;;;;;;5041646;28;20056;-55
2022/09/18 12:09:11;;;;;;;2.42;1.80;;;10.60;99.90;;;;;;5042219;28;20041;-51
2022/09/18 12:12:01;;;;;;;3.92;1.58;;;10.40;99.90;;;;;;5043647;28;20047;-53
2022/09/18 12:14:58;;;;;;;1.90;1.80;;;10.50;99.90;;;;;;5042287;28;20056;-55
2022/09/18 12:17:58;;;;;;;8.48;5.72;;;10.60;99.90;;;;;;5043044;28;20060;-54
2022/09/18 12:20:40;;;;;;;12.05;6.35;;;10.50;99.90;;;;;;5042834;28;20029;-51
2022/09/18 12:23:13;;;;;;;7.68;4.88;;;10.50;99.90;;;;;;5042442;28;20029;-53
2022/09/18 12:26:03;;;;;;;2.83;2.58;;;10.50;99.90;;;;;;5042642;28;20040;-53
2022/09/18 12:28:32;;;;;;;2.47;2.00;;;10.50;99.90;;;;;;5041955;28;20140;-55
2022/09/18 12:31:11;;;;;;;2.17;1.85;;;10.70;99.90;;;;;;5042578;28;20045;-54
2022/09/18 12:34:08;;;;;;;3.95;1.77;;;10.80;99.90;;;;;;5042584;28;20079;-56
2022/09/18 12:36:59;;;;;;;1.95;1.70;;;10.90;99.90;;;;;;5041885;28;20036;-53
2022/09/18 12:39:24;;;;;;;1.50;1.40;;;10.90;99.90;;;;;;5042037;28;20033;-54
2022/09/18 12:42:03;;;;;;;6.60;3.85;;;10.60;99.90;;;;;;5041683;28;20163;-56
2022/09/18 12:44:35;;;;;;;2.15;1.67;;;10.60;99.90;;;;;;5042588;28;20064;-55
2022/09/18 12:47:18;;;;;;;3.03;2.10;;;10.70;99.90;;;;;;5041049;28;20083;-51
2022/09/18 12:49:59;;;;;;;2.55;1.83;;;10.60;99.90;;;;;;5041810;28;20029;-51
2022/09/18 12:52:48;;;;;;;2.15;1.70;;;10.50;99.90;;;;;;5042583;28;20115;-52
2022/09/18 12:55:38;;;;;;;5.53;2.38;;;10.50;99.90;;;;;;5050550;28;20475;-55
2022/09/18 12:58:12;;;;;;;3.08;1.77;;;10.40;99.90;;;;;;5042931;28;20059;-56
2022/09/18 13:00:46;;;;;;;5.45;2.13;;;10.50;99.90;;;;;;5041938;28;20097;-51
2022/09/18 13:03:25;;;;;;;4.10;1.98;;;10.50;99.90;;;;;;5043316;28;21667;-51
2022/09/18 13:05:59;;;;;;;3.33;2.25;;;10.50;99.90;;;;;;5041255;28;20428;-51
2022/09/18 13:08:40;;;;;;;3.15;1.60;;;10.70;99.90;;;;;;5041105;28;20048;-50
2022/09/18 13:11:19;;;;;;;5.90;2.20;;;10.80;99.90;;;;;;5047023;28;20072;-52
2022/09/18 13:13:52;;;;;;;2.08;1.80;;;10.90;99.90;;;;;;5052285;28;20025;-51
2022/09/18 13:16:34;;;;;;;2.10;1.77;;;10.80;99.90;;;;;;5050533;28;20032;-53
2022/09/18 13:19:17;;;;;;;3.65;2.10;;;10.70;99.90;;;;;;5049631;28;20075;-52
2022/09/18 13:21:46;;;;;;;2.33;1.70;;;10.50;99.90;;;;;;5050468;28;20064;-51